Time;durP1;ratioP1;P1;durP2;ratioP2;P2;SDS_P1;SDS_P2;PMS_P1;PMS_P2;Temp;Humidity;BMP_temperature;BMP_pressure;BME280_temperature;BME280_humidity;BME280_pressure;Samples;Min_cycle;Max_cycle;Signal;HPM_P1;HPM_P2
2024/01/12 07:01:57;;;;;;;0.20;0.20;;;4.60;99.90;6.70;103069.00;;;;6276880;22;1528003;-77
2024/01/12 07:04:58;;;;;;;1.03;1.03;;;4.70;99.90;5.60;103047.00;;;;6309110;22;20140;-76
2024/01/12 07:08:04;;;;;;;1.53;1.43;;;4.40;99.90;6.20;103058.00;;;;6307876;22;20152;-76
2024/01/12 07:11:08;;;;;;;0.20;0.20;;;4.20;99.90;6.60;103070.00;;;;6307762;22;20232;-76
2024/01/12 07:14:15;;;;;;;0.20;0.20;;;4.40;99.90;7.10;103099.00;;;;6308078;22;20202;-76
2024/01/12 07:17:18;;;;;;;0.20;0.20;;;4.60;99.90;7.10;103093.00;;;;6282807;22;20600;-75
2024/01/12 07:20:21;;;;;;;0.30;0.30;;;4.70;99.90;6.80;103079.00;;;;6281921;22;20162;-74
2024/01/12 07:23:20;;;;;;;0.20;0.20;;;4.60;99.90;7.40;103103.00;;;;6307640;22;20591;-74
2024/01/12 07:26:14;;;;;;;0.20;0.20;;;4.80;99.90;8.20;103107.00;;;;6308497;22;20657;-76
2024/01/12 07:29:21;;;;;;;0.20;0.20;;;5.00;99.90;8.10;103116.00;;;;6308145;22;20162;-75
2024/01/12 07:31:54;;;;;;;0.50;0.50;;;5.40;99.90;7.40;103079.00;;;;6308114;22;20169;-76
2024/01/12 07:34:31;;;;;;;0.43;0.43;;;5.10;99.90;7.60;103101.00;;;;6307497;22;20226;-76
2024/01/12 07:37:01;;;;;;;0.30;0.30;;;5.00;99.90;7.00;103106.00;;;;6307290;22;20473;-76
2024/01/12 07:39:35;;;;;;;0.30;0.30;;;4.90;99.90;7.50;103035.00;;;;6307960;22;20146;-76
2024/01/12 07:42:12;;;;;;;0.20;0.20;;;4.90;99.90;7.20;103109.00;;;;6307420;22;20511;-75
2024/01/12 07:45:07;;;;;;;0.20;0.20;;;4.90;99.90;7.00;103111.00;;;;6309218;22;20221;-74
2024/01/12 07:47:58;;;;;;;0.20;0.20;;;4.80;99.90;6.90;103083.00;;;;6307700;22;20157;-74
2024/01/12 07:51:07;;;;;;;0.20;0.20;;;4.60;99.90;7.70;103120.00;;;;6281974;22;20682;-74
2024/01/12 07:54:02;;;;;;;0.20;0.20;;;4.90;99.90;8.60;103129.00;;;;6307372;22;20153;-74
2024/01/12 07:56:39;;;;;;;0.20;0.20;;;5.30;99.90;8.50;103059.00;;;;6306894;22;20185;-72
2024/01/12 08:00:05;;;;;;;0.30;0.30;;;5.50;99.90;7.80;103127.00;;;;6308029;22;20155;-74
2024/01/12 08:02:40;;;;;;;0.23;0.23;;;5.30;99.90;8.30;103112.00;;;;6306823;22;20504;-74
2024/01/12 08:05:07;;;;;;;1.17;1.17;;;5.30;99.90;7.60;103128.00;;;;6306873;22;20140;-74
2024/01/12 08:07:37;;;;;;;0.20;0.20;;;5.30;99.90;7.40;103094.00;;;;6281760;22;20292;-74
2024/01/12 08:10:33;;;;;;;1.17;1.17;;;5.10;99.90;8.30;103118.00;;;;6281004;22;20177;-74
2024/01/12 08:13:45;;;;;;;0.20;0.20;;;5.30;99.90;8.20;103117.00;;;;6306279;22;20584;-74
2024/01/12 08:16:18;;;;;;;0.20;0.20;;;5.20;99.90;7.20;103082.00;;;;6282135;22;20237;-74
2024/01/12 08:19:18;;;;;;;0.30;0.30;;;5.00;99.90;8.10;103123.00;;;;6281610;22;20158;-74
2024/01/12 08:22:09;;;;;;;0.20;0.20;;;5.20;99.90;8.20;103076.00;;;;6307721;22;20164;-74
2024/01/12 08:25:28;;;;;;;0.20;0.20;;;5.30;99.90;7.80;103093.00;;;;6332572;22;20527;-74
2024/01/12 08:28:30;;;;;;;0.40;0.40;;;5.10;99.90;8.90;103097.00;;;;6285078;22;20188;-74
2024/01/12 08:31:17;;;;;;;0.20;0.20;;;5.50;99.90;8.50;103088.00;;;;6280835;22;20517;-72
2024/01/12 08:34:23;;;;;;;0.20;0.20;;;5.50;99.90;9.00;103118.00;;;;6307406;22;20223;-72
2024/01/12 08:36:54;;;;;;;0.20;0.20;;;5.70;99.90;8.60;103123.00;;;;6275674;22;20511;-74
2024/01/12 08:39:23;;;;;;;0.20;0.20;;;5.80;99.90;8.30;103060.00;;;;6306340;22;20576;-72
2024/01/12 08:41:56;;;;;;;0.20;0.20;;;5.50;99.90;8.70;103107.00;;;;6279486;22;20215;-74
2024/01/12 08:45:30;;;;;;;0.40;0.40;;;5.50;99.90;8.30;103109.00;;;;6279918;22;20261;-74
2024/01/12 08:48:19;;;;;;;0.30;0.30;;;5.70;99.90;8.40;103101.00;;;;6283700;22;20155;-74
2024/01/12 08:51:35;;;;;;;1.17;1.17;;;5.40;99.90;8.50;103112.00;;;;6280513;22;20187;-73
2024/01/12 08:54:44;;;;;;;0.20;0.20;;;5.50;99.90;8.20;103103.00;;;;6306411;22;20170;-75
2024/01/12 08:57:56;;;;;;;1.10;1.10;;;5.40;99.90;8.40;103123.00;;;;6304912;22;20161;-73
2024/01/12 09:01:06;;;;;;;0.30;0.30;;;5.40;99.90;8.60;103120.00;;;;6281660;22;20644;-75
2024/01/12 09:04:07;;;;;;;0.20;0.20;;;5.60;99.90;8.20;103104.00;;;;6306424;22;20177;-74
2024/01/12 09:07:03;;;;;;;0.83;0.83;;;5.60;99.90;9.10;103108.00;;;;6300514;22;20166;-74
2024/01/12 09:09:53;;;;;;;0.20;0.20;;;5.70;99.90;9.10;103130.00;;;;6305686;22;20156;-75
2024/01/12 09:12:30;;;;;;;0.20;0.20;;;6.10;99.90;9.30;103131.00;;;;6306599;22;20265;-75
2024/01/12 09:15:27;;;;;;;3.43;3.10;;;6.10;99.90;8.10;103119.00;;;;6308571;22;20140;-75
2024/01/12 09:18:28;;;;;;;0.20;0.20;;;5.80;99.90;8.60;103034.00;;;;6286809;22;20183;-75
2024/01/12 09:21:00;;;;;;;1.43;1.33;;;5.70;99.90;9.00;103138.00;;;;6306830;22;20174;-74
2024/01/12 09:23:34;;;;;;;0.20;0.20;;;5.80;99.90;9.00;103129.00;;;;6305446;22;20254;-74
2024/01/12 09:26:44;;;;;;;5.17;4.83;;;5.90;99.90;8.80;103130.00;;;;6306522;22;20534;-74
2024/01/12 09:29:50;;;;;;;2.17;2.07;;;5.80;99.90;9.60;103142.00;;;;6307509;22;20160;-74
2024/01/12 09:32:59;;;;;;;0.57;0.57;;;6.20;99.90;10.00;103161.00;;;;6306237;22;20231;-74
2024/01/12 09:36:15;;;;;;;0.37;0.37;;;6.70;99.90;9.50;103169.00;;;;6281471;22;20157;-74
2024/01/12 09:39:30;;;;;;;0.40;0.40;;;6.40;99.90;9.10;103164.00;;;;6306071;22;20182;-74
2024/01/12 09:42:07;;;;;;;0.20;0.20;;;6.40;99.90;9.20;103162.00;;;;6306491;22;20179;-75
2024/01/12 09:44:40;;;;;;;0.40;0.40;;;6.20;99.90;9.60;103175.00;;;;6307186;22;20212;-74
2024/01/12 09:47:34;;;;;;;0.20;0.20;;;6.30;99.90;9.80;103181.00;;;;6304953;22;20160;-75
2024/01/12 09:50:01;;;;;;;0.30;0.30;;;6.40;99.90;9.60;103163.00;;;;6285258;22;20160;-74
2024/01/12 09:52:56;;;;;;;0.23;0.23;;;6.50;99.90;9.70;103177.00;;;;6307702;22;20576;-74
2024/01/12 09:56:15;;;;;;;0.20;0.20;;;6.70;99.90;10.20;103122.00;;;;6279855;22;20168;-75
2024/01/12 09:59:07;;;;;;;0.20;0.20;;;6.90;99.90;10.50;103191.00;;;;6283603;22;20162;-73
2024/01/12 10:01:43;;;;;;;22.13;11.80;;;6.90;99.90;10.50;103199.00;;;;6306256;22;20171;-74
2024/01/12 10:04:56;;;;;;;1.33;1.33;;;7.00;99.90;10.20;103188.00;;;;6306343;22;20149;-75
2024/01/12 10:07:43;;;;;;;0.20;0.20;;;6.80;99.90;10.10;103186.00;;;;6284663;22;20156;-74
2024/01/12 10:10:49;;;;;;;0.40;0.40;;;6.80;99.90;9.80;103204.00;;;;6306270;22;20139;-76
2024/01/12 10:13:38;;;;;;;0.53;0.53;;;6.90;99.90;10.10;103199.00;;;;6305757;22;20185;-76
2024/01/12 10:16:27;;;;;;;0.70;0.70;;;6.90;99.90;10.10;103174.00;;;;6260432;22;20221;-76
2024/01/12 10:19:08;;;;;;;0.20;0.20;;;6.80;99.90;10.10;103195.00;;;;6307737;22;20155;-76
2024/01/12 10:34:11;;;;;;;0.20;0.20;;;5.40;99.90;8.80;103141.00;;;;5098670;27;1449629;-75
2024/01/12 10:37:23;;;;;;;0.10;0.10;;;5.80;99.90;8.40;103140.00;;;;5096931;28;20184;-76
2024/01/12 10:40:43;;;;;;;0.20;0.20;;;6.00;99.90;9.10;103146.00;;;;5124464;28;20632;-73
2024/01/12 10:43:54;;;;;;;0.20;0.20;;;6.20;99.90;10.30;103153.00;;;;5099135;28;20200;-69
2024/01/12 10:46:50;;;;;;;0.97;0.97;;;6.70;99.90;10.30;103166.00;;;;5126335;28;20692;-69
2024/01/12 10:49:45;;;;;;;0.20;0.20;;;7.10;99.90;10.80;103111.00;;;;5093975;28;20665;-74
2024/01/12 10:52:52;;;;;;;0.20;0.20;;;7.20;99.90;11.00;103183.00;;;;5100149;28;20193;-76
2024/01/12 10:55:32;;;;;;;0.20;0.20;;;7.50;99.90;11.00;103148.00;;;;5126096;28;20271;-75
2024/01/12 10:58:10;;;;;;;0.40;0.40;;;7.50;99.90;9.40;103179.00;;;;5103279;28;20190;-76
2024/01/12 11:00:45;;;;;;;0.63;0.63;;;6.70;99.90;9.10;103145.00;;;;5106632;28;20176;-76
2024/01/12 11:03:43;;;;;;;0.20;0.20;;;6.40;99.90;10.20;103132.00;;;;5112169;28;20187;-76
2024/01/12 11:06:32;;;;;;;0.70;0.70;;;6.70;99.90;8.60;103140.00;;;;5083321;28;20231;-75
2024/01/12 11:09:17;;;;;;;0.20;0.20;;;6.20;99.90;9.30;103124.00;;;;5128828;28;20210;-74
2024/01/12 11:12:21;;;;;;;0.20;0.20;;;6.30;99.90;10.10;103138.00;;;;5128359;28;20700;-73
2024/01/12 11:14:55;;;;;;;0.20;0.20;;;6.70;99.90;10.20;103144.00;;;;5097853;28;20209;-73
2024/01/12 11:17:49;;;;;;;0.20;0.20;;;6.90;99.90;10.80;103131.00;;;;5108470;28;20190;-74
2024/01/12 11:20:29;;;;;;;0.20;0.20;;;7.20;99.90;10.80;103142.00;;;;5088763;28;20192;-74
2024/01/12 11:23:10;;;;;;;0.20;0.20;;;7.40;99.90;11.20;103166.00;;;;5121484;28;20191;-74
2024/01/12 11:25:44;;;;;;;0.27;0.27;;;7.60;99.90;10.90;103183.00;;;;5102613;28;20654;-74
2024/01/12 11:28:25;;;;;;;0.20;0.20;;;7.60;99.90;11.40;103169.00;;;;5103541;28;20276;-74
2024/01/12 11:31:03;;;;;;;0.20;0.20;;;7.70;99.90;11.40;103166.00;;;;5123934;28;20175;-73
2024/01/12 11:33:50;;;;;;;7.23;6.23;;;7.80;99.90;11.40;103189.00;;;;5128459;28;20225;-73
2024/01/12 11:36:30;;;;;;;0.30;0.30;;;8.00;99.90;10.60;103188.00;;;;5110593;28;20625;-74
2024/01/12 11:39:28;;;;;;;0.30;0.30;;;7.60;99.90;10.80;103125.00;;;;5110040;28;20171;-73
2024/01/12 11:42:06;;;;;;;0.43;0.43;;;7.50;99.90;8.60;103173.00;;;;5103312;28;20546;-73
2024/01/12 11:44:46;;;;;;;0.20;0.20;;;6.90;99.90;8.80;103108.00;;;;5106868;28;20586;-74
2024/01/12 11:47:23;;;;;;;0.20;0.20;;;6.40;99.90;9.60;103114.00;;;;5087539;28;20183;-74
2024/01/12 11:49:54;;;;;;;0.30;0.30;;;6.40;99.90;8.60;103114.00;;;;5107976;28;20270;-74
2024/01/12 11:52:28;;;;;;;0.20;0.20;;;6.50;99.90;9.80;103097.00;;;;5081990;28;20207;-74
2024/01/12 11:55:10;;;;;;;0.20;0.20;;;6.60;99.90;10.60;103110.00;;;;5093434;28;20179;-73
2024/01/12 11:57:51;;;;;;;1.23;1.13;;;7.00;99.90;9.00;103106.00;;;;5094415;28;20705;-74
2024/01/12 12:00:28;;;;;;;0.20;0.20;;;6.80;99.90;8.90;103095.00;;;;5094676;28;20185;-73
2024/01/12 12:03:11;;;;;;;0.20;0.20;;;6.50;99.90;9.70;103084.00;;;;5089311;28;20184;-74
2024/01/12 12:05:53;;;;;;;0.20;0.20;;;6.50;99.90;10.20;103084.00;;;;5089827;28;20183;-73
2024/01/12 12:08:30;;;;;;;0.50;0.50;;;6.80;99.90;9.60;103088.00;;;;5107625;28;20263;-74
2024/01/12 12:11:13;;;;;;;0.60;0.60;;;7.10;99.90;8.10;103079.00;;;;5096847;28;20266;-73
2024/01/12 12:13:55;;;;;;;0.50;0.50;;;6.20;99.90;7.90;103058.00;;;;5094093;28;20223;-73
2024/01/12 12:16:29;;;;;;;0.43;0.43;;;5.90;99.90;8.40;103063.00;;;;5097707;28;20215;-74
2024/01/12 12:19:09;;;;;;;0.97;0.97;;;5.80;99.90;9.30;103078.00;;;;5096301;28;20193;-74
2024/01/12 12:21:54;;;;;;;0.30;0.30;;;6.20;99.90;9.10;103064.00;;;;5094935;28;20283;-74
2024/01/12 12:24:31;;;;;;;0.20;0.20;;;6.10;99.90;9.40;103049.00;;;;5105286;28;21240;-74
2024/01/12 12:27:22;;;;;;;0.20;0.20;;;6.30;99.90;10.40;103085.00;;;;5108241;28;20179;-74
2024/01/12 12:30:06;;;;;;;0.73;0.73;;;6.80;99.90;10.70;103105.00;;;;5103636;28;20224;-73
2024/01/12 12:32:48;;;;;;;0.20;0.20;;;7.30;99.90;10.80;103104.00;;;;5111352;28;20294;-74
2024/01/12 12:35:34;;;;;;;0.20;0.20;;;7.50;99.90;10.90;103116.00;;;;5110898;28;20664;-74
2024/01/12 12:38:22;;;;;;;0.20;0.20;;;7.60;99.90;10.90;103118.00;;;;5084691;28;20173;-74
2024/01/12 12:41:00;;;;;;;0.90;0.90;;;7.50;99.90;11.00;103119.00;;;;5101032;28;20526;-74
2024/01/12 12:43:43;;;;;;;0.20;0.20;;;7.60;99.90;11.40;103076.00;;;;5082705;28;20262;-74
2024/01/12 12:46:26;;;;;;;0.20;0.20;;;7.80;99.90;11.30;103121.00;;;;5092369;28;20172;-73
2024/01/12 12:49:06;;;;;;;1.07;1.07;;;7.90;99.90;11.30;103117.00;;;;5102870;28;20618;-73
2024/01/12 12:51:44;;;;;;;0.20;0.20;;;7.90;99.90;10.50;103102.00;;;;5099058;28;20191;-74
2024/01/12 12:54:30;;;;;;;0.60;0.60;;;7.50;99.90;10.00;103125.00;;;;5095539;28;20169;-74
2024/01/12 12:57:11;;;;;;;0.20;0.20;;;7.40;99.90;9.40;103070.00;;;;5094564;28;20226;-73
2024/01/12 12:59:51;;;;;;;4.80;3.17;;;6.50;99.90;10.40;103066.00;;;;5107779;28;20192;-74
2024/01/12 13:02:36;;;;;;;0.20;0.20;;;6.80;99.90;10.30;103024.00;;;;5097623;28;20241;-73
2024/01/12 13:05:36;;;;;;;0.20;0.20;;;7.00;99.90;9.10;103026.00;;;;5078430;28;20455;-74
2024/01/12 13:08:21;;;;;;;0.20;0.20;;;6.70;99.90;8.40;103003.00;;;;5111721;28;20318;-73
2024/01/12 13:11:06;;;;;;;0.20;0.20;;;6.30;99.90;9.90;103047.00;;;;5097467;28;20177;-74
2024/01/12 13:13:43;;;;;;;0.77;0.77;;;6.60;99.90;10.60;103022.00;;;;5109110;28;20179;-74
2024/01/12 13:16:29;;;;;;;0.83;0.83;;;7.00;99.90;10.80;103068.00;;;;5093123;28;20298;-74
2024/01/12 13:19:09;;;;;;;2.10;0.77;;;7.40;99.90;8.90;103043.00;;;;5100994;28;20171;-73
2024/01/12 13:21:52;;;;;;;1.20;0.87;;;7.00;99.90;9.10;103033.00;;;;5091723;28;20629;-74
2024/01/12 13:24:43;;;;;;;4.60;4.23;;;6.40;99.90;8.10;103014.00;;;;5093604;28;20179;-73
2024/01/12 13:27:21;;;;;;;0.50;0.50;;;6.00;99.90;9.30;103017.00;;;;5109450;28;20217;-74
2024/01/12 13:30:00;;;;;;;0.60;0.60;;;6.20;99.90;9.40;103019.00;;;;5097994;28;20282;-74
2024/01/12 13:32:37;;;;;;;0.27;0.27;;;6.50;99.90;9.80;103025.00;;;;5102436;28;20210;-74
2024/01/12 13:35:25;;;;;;;1.47;1.40;;;6.60;99.90;9.40;103011.00;;;;5087452;28;20276;-74
2024/01/12 13:38:05;;;;;;;1.93;1.83;;;6.70;99.90;8.70;102958.00;;;;5097214;28;20714;-73
2024/01/12 13:40:45;;;;;;;0.50;0.50;;;6.50;99.90;8.20;103009.00;;;;5096310;28;20188;-74
2024/01/12 13:43:22;;;;;;;3.50;1.70;;;6.20;99.90;7.70;102935.00;;;;5076231;28;20195;-74
2024/01/12 13:46:05;;;;;;;0.30;0.30;;;5.80;99.90;8.80;102987.00;;;;5094253;28;20189;-73
2024/01/12 13:48:44;;;;;;;0.20;0.20;;;5.80;99.90;9.10;102994.00;;;;5099937;28;20263;-74
2024/01/12 13:51:22;;;;;;;1.50;1.40;;;6.20;99.90;10.10;103001.00;;;;5103456;28;20177;-74
2024/01/12 13:54:06;;;;;;;2.00;1.90;;;6.60;99.90;10.00;103021.00;;;;5105720;28;20221;-73
2024/01/12 13:56:51;;;;;;;4.20;1.90;;;7.00;99.90;9.10;103027.00;;;;5100713;28;20179;-73
2024/01/12 13:59:36;;;;;;;1.50;1.40;;;6.70;99.90;8.30;102994.00;;;;5083381;28;20221;-74
2024/01/12 14:02:15;;;;;;;0.30;0.30;;;6.10;99.90;7.70;102974.00;;;;5112398;28;20181;-74
2024/01/12 14:04:53;;;;;;;0.20;0.20;;;5.60;99.90;8.80;102979.00;;;;5092512;28;20193;-73
2024/01/12 14:07:31;;;;;;;0.43;0.43;;;5.80;99.90;8.80;102991.00;;;;5081007;28;20232;-74
2024/01/12 14:10:11;;;;;;;0.30;0.30;;;6.00;99.90;8.20;102974.00;;;;5108802;28;20213;-74
2024/01/12 14:12:53;;;;;;;0.70;0.70;;;5.90;99.90;8.30;102964.00;;;;5087937;28;20208;-74
2024/01/12 14:15:34;;;;;;;0.20;0.20;;;5.70;99.90;8.60;102980.00;;;;5099056;28;20180;-74
2024/01/12 14:18:10;;;;;;;2.10;1.93;;;5.70;99.90;8.70;102970.00;;;;5110653;28;20190;-74
2024/01/12 14:20:55;;;;;;;1.87;1.43;;;5.80;99.90;8.10;102954.00;;;;5086107;28;20180;-74
2024/01/12 14:23:31;;;;;;;0.53;0.53;;;5.80;99.90;7.30;102946.00;;;;5075567;28;20201;-73
2024/01/12 14:26:14;;;;;;;3.10;1.40;;;5.40;99.90;8.50;102970.00;;;;5098624;28;20511;-74
2024/01/12 14:28:51;;;;;;;4.70;1.63;;;5.70;99.90;7.40;102954.00;;;;5087085;28;20211;-73
2024/01/12 14:31:37;;;;;;;0.57;0.57;;;5.50;99.90;8.00;102948.00;;;;5085462;28;20240;-74
2024/01/12 14:34:16;;;;;;;0.20;0.20;;;5.50;99.90;8.50;102957.00;;;;5100758;28;20328;-73
2024/01/12 14:36:56;;;;;;;0.30;0.30;;;5.70;99.90;8.40;102895.00;;;;5076031;28;20190;-74
2024/01/12 14:39:38;;;;;;;0.20;0.20;;;5.60;99.90;9.20;102960.00;;;;5101062;28;20184;-73
2024/01/12 14:42:29;;;;;;;0.60;0.60;;;6.10;99.90;8.90;102947.00;;;;5103507;28;20183;-73
2024/01/12 14:45:41;;;;;;;0.30;0.30;;;6.00;99.90;8.50;102918.00;;;;5099590;28;20758;-75
2024/01/12 14:49:00;;;;;;;0.20;0.20;;;5.90;99.90;9.50;102948.00;;;;5109661;28;20285;-74
2024/01/12 14:51:29;;;;;;;1.50;0.80;;;6.10;99.90;10.10;102959.00;;;;5083683;28;20240;-75
2024/01/12 14:54:00;;;;;;;0.30;0.30;;;6.70;99.90;10.30;102980.00;;;;5097564;28;20279;-75
2024/01/12 14:56:26;;;;;;;1.13;1.13;;;6.90;99.90;9.50;102980.00;;;;5100059;28;20194;-75
2024/01/12 14:58:53;;;;;;;2.80;2.13;;;6.90;99.90;9.20;102969.00;;;;5086200;28;20278;-75
2024/01/12 15:01:19;;;;;;;1.13;1.03;;;6.50;99.90;8.30;102899.00;;;;5111317;28;20183;-75
2024/01/12 15:04:28;;;;;;;0.20;0.20;;;6.10;99.90;9.10;102958.00;;;;5105225;28;20187;-75
2024/01/12 15:07:52;;;;;;;0.20;0.20;;;6.30;99.90;9.50;102962.00;;;;5085356;28;20190;-75
2024/01/12 15:11:06;;;;;;;0.20;0.20;;;6.50;99.90;9.80;102957.00;;;;5100059;28;20633;-75
2024/01/12 15:14:10;;;;;;;0.20;0.20;;;6.80;99.90;9.50;102957.00;;;;5097757;28;20278;-75
2024/01/12 15:17:34;;;;;;;4.00;3.80;;;6.60;99.90;9.90;102960.00;;;;5095420;28;20210;-75
2024/01/12 15:20:46;;;;;;;0.30;0.30;;;6.60;99.90;10.30;102975.00;;;;5091900;28;20187;-75
2024/01/12 15:23:57;;;;;;;0.60;0.57;;;6.80;99.90;9.70;102986.00;;;;5096163;28;20186;-75
2024/01/12 15:27:07;;;;;;;2.70;2.33;;;7.00;99.90;8.40;102973.00;;;;5097030;28;20422;-75
2024/01/12 15:30:26;;;;;;;2.20;2.00;;;6.30;99.90;8.50;102954.00;;;;5095952;28;20182;-75
2024/01/12 15:33:32;;;;;;;0.77;0.77;;;5.90;99.90;8.30;102950.00;;;;5100117;28;20216;-76
2024/01/12 15:36:44;;;;;;;0.20;0.20;;;5.70;99.90;8.40;102953.00;;;;5099306;28;20198;-76
2024/01/12 15:39:40;;;;;;;0.40;0.40;;;5.80;99.90;8.20;102936.00;;;;5101248;28;20204;-76
2024/01/12 15:42:52;;;;;;;4.17;2.80;;;5.60;99.90;8.40;102956.00;;;;5086678;28;20691;-76
2024/01/12 15:46:03;;;;;;;0.73;0.73;;;5.90;99.90;8.30;102948.00;;;;5107069;28;20188;-75
2024/01/12 15:48:57;;;;;;;0.40;0.40;;;5.90;99.90;7.80;102909.00;;;;5068569;28;20530;-75
2024/01/12 15:52:12;;;;;;;0.20;0.20;;;5.50;99.90;8.60;102944.00;;;;5100480;28;20279;-75
2024/01/12 15:55:16;;;;;;;0.80;0.80;;;5.60;99.90;8.00;102952.00;;;;5108314;28;20254;-76
2024/01/12 15:57:45;;;;;;;0.27;0.27;;;5.70;99.90;9.10;102955.00;;;;5087503;28;20509;-76
2024/01/12 16:00:12;;;;;;;0.30;0.30;;;5.80;99.90;9.90;102949.00;;;;5109219;28;20172;-76
2024/01/12 16:02:40;;;;;;;2.00;1.90;;;6.30;99.90;8.30;102951.00;;;;5097765;28;20519;-76
2024/01/12 16:05:07;;;;;;;0.83;0.80;;;6.20;99.90;8.50;102950.00;;;;5094288;28;20188;-76
2024/01/12 16:07:33;;;;;;;0.73;0.70;;;5.80;99.90;7.50;102865.00;;;;5101497;28;20178;-76
2024/01/12 16:10:03;;;;;;;0.97;0.97;;;5.50;99.90;7.30;102926.00;;;;5105384;28;20190;-76
2024/01/12 16:12:57;;;;;;;1.63;1.60;;;5.30;99.90;7.00;102906.00;;;;5096099;28;20213;-76
2024/01/12 16:16:07;;;;;;;0.50;0.50;;;5.00;99.90;7.20;102912.00;;;;5103604;28;20199;-76
2024/01/12 16:18:34;;;;;;;0.20;0.20;;;5.00;99.90;7.40;102890.00;;;;5084241;28;20179;-77
2024/01/12 16:24:44;;;;;;;3.97;2.33;;;5.10;99.90;7.70;102911.00;;;;5098515;28;20671;-76
2024/01/12 16:27:54;;;;;;;0.20;0.20;;;5.20;99.90;8.40;102925.00;;;;5094913;28;20650;-76
2024/01/12 16:30:22;;;;;;;1.23;1.23;;;5.40;99.90;9.30;102933.00;;;;5099514;28;20179;-76
2024/01/12 16:32:48;;;;;;;0.27;0.27;;;5.80;99.90;8.80;102898.00;;;;5097340;28;20226;-76
2024/01/12 16:35:44;;;;;;;4.83;4.73;;;6.00;99.90;9.40;102929.00;;;;5088363;28;20685;-76
2024/01/12 16:38:54;;;;;;;0.30;0.30;;;6.20;99.90;9.20;102944.00;;;;5107012;28;20196;-76
2024/01/12 16:41:58;;;;;;;1.13;1.13;;;6.10;99.90;8.50;102942.00;;;;5096481;28;20207;-75
2024/01/12 16:44:59;;;;;;;0.73;0.73;;;6.20;99.90;8.70;102884.00;;;;5105571;28;20200;-75
2024/01/12 16:48:05;;;;;;;0.20;0.20;;;6.10;99.90;8.20;102927.00;;;;5098132;28;20183;-76
2024/01/12 16:51:21;;;;;;;0.50;0.50;;;5.90;99.90;8.40;102935.00;;;;5094137;28;20178;-76
2024/01/12 16:54:44;;;;;;;0.50;0.50;;;5.80;99.90;7.50;102921.00;;;;5080347;28;20182;-76
2024/01/12 16:57:48;;;;;;;0.40;0.40;;;5.50;99.90;8.10;102870.00;;;;5085766;28;20176;-76
2024/01/12 17:00:57;;;;;;;1.03;1.03;;;5.60;99.90;7.80;102925.00;;;;5091005;28;20248;-76
2024/01/12 17:04:01;;;;;;;0.20;0.20;;;5.50;99.90;8.80;102814.00;;;;5078570;28;20235;-76
2024/01/12 17:07:05;;;;;;;0.30;0.30;;;5.60;99.90;9.70;102884.00;;;;5102224;28;20282;-77
2024/01/12 17:10:24;;;;;;;0.20;0.20;;;6.20;99.90;9.80;102947.00;;;;5098907;28;20181;-77
2024/01/12 17:13:45;;;;;;;0.57;0.57;;;6.40;99.90;10.00;102962.00;;;;5100649;28;20566;-76
2024/01/12 17:16:57;;;;;;;0.20;0.20;;;6.80;99.90;10.10;102963.00;;;;5096184;28;20698;-76
2024/01/12 17:20:10;;;;;;;0.70;0.70;;;6.80;99.90;9.20;102953.00;;;;5083589;28;20187;-76
2024/01/12 17:23:21;;;;;;;0.93;0.93;;;6.70;99.90;9.30;102948.00;;;;5078963;28;20276;-77
2024/01/12 17:26:13;;;;;;;1.50;1.43;;;6.40;99.90;9.70;102901.00;;;;5092756;28;20265;-76
2024/01/12 17:29:13;;;;;;;0.20;0.20;;;6.50;99.90;10.10;102943.00;;;;5111883;28;20270;-72
2024/01/12 17:31:54;;;;;;;1.03;1.03;;;6.90;99.90;10.10;102904.00;;;;5083599;28;20670;-78
2024/01/12 17:35:13;;;;;;;0.57;0.57;;;6.90;99.90;10.00;102946.00;;;;5097579;28;20180;-78
2024/01/12 17:38:24;;;;;;;0.20;0.20;;;6.90;99.90;9.80;102913.00;;;;5092408;28;20182;-78
2024/01/12 17:41:29;;;;;;;0.30;0.30;;;6.80;99.90;10.20;102942.00;;;;5101372;28;20204;-78
2024/01/12 17:44:48;;;;;;;0.40;0.40;;;6.70;99.90;10.40;102889.00;;;;5094468;28;20236;-78
2024/01/12 17:48:12;;;;;;;0.30;0.30;;;7.10;99.90;10.10;102943.00;;;;5094460;28;20192;-77
2024/01/12 17:51:26;;;;;;;1.60;1.27;;;7.00;99.90;9.50;102920.00;;;;5086557;28;20519;-78
2024/01/12 17:54:37;;;;;;;0.30;0.30;;;6.70;99.90;9.80;102873.00;;;;5101555;28;20236;-78
2024/01/12 17:57:48;;;;;;;0.30;0.30;;;6.60;99.90;9.60;102914.00;;;;5092371;28;20187;-78
2024/01/12 18:00:55;;;;;;;0.30;0.30;;;6.50;99.90;9.70;102906.00;;;;5094805;28;20198;-78
2024/01/12 18:03:44;;;;;;;0.30;0.30;;;6.50;99.90;9.90;102909.00;;;;5091026;28;20210;-78
2024/01/12 18:06:34;;;;;;;0.33;0.33;;;6.70;99.90;10.30;102913.00;;;;5008666;28;20289;-78
2024/01/12 18:09:36;;;;;;;0.37;0.37;;;6.80;99.90;9.80;102905.00;;;;5004656;28;20214;-77
2024/01/12 18:12:33;;;;;;;0.30;0.30;;;6.90;99.90;9.90;102918.00;;;;5096804;28;20212;-78
2024/01/12 18:15:31;;;;;;;0.40;0.40;;;6.80;99.90;9.50;102917.00;;;;5084717;28;20250;-78
2024/01/12 18:18:34;;;;;;;0.30;0.30;;;6.80;99.90;10.30;102897.00;;;;5093039;28;20195;-78
2024/01/12 18:21:45;;;;;;;0.50;0.50;;;6.90;99.90;9.70;102914.00;;;;5097204;28;20517;-78
2024/01/12 18:24:57;;;;;;;7.83;7.43;;;6.80;99.90;9.90;102904.00;;;;5098788;28;20184;-77
2024/01/12 18:27:49;;;;;;;0.87;0.87;;;6.80;99.90;10.40;102897.00;;;;5095363;28;20236;-78
2024/01/12 18:30:49;;;;;;;0.53;0.53;;;7.00;99.90;10.20;102910.00;;;;5104975;28;20188;-78
2024/01/12 18:33:30;;;;;;;0.30;0.30;;;7.00;99.90;10.40;102922.00;;;;5099217;28;20202;-78
2024/01/12 18:36:39;;;;;;;0.40;0.40;;;7.30;99.90;10.10;102912.00;;;;5105033;28;20186;-78
2024/01/12 18:39:35;;;;;;;0.40;0.40;;;7.20;99.90;10.10;102921.00;;;;5105604;28;20207;-78
2024/01/12 18:42:58;;;;;;;0.30;0.30;;;7.10;99.90;10.10;102908.00;;;;5098673;28;20533;-78
2024/01/12 18:46:16;;;;;;;2.43;2.23;;;7.10;99.90;10.20;102915.00;;;;5107411;28;20187;-77
2024/01/12 18:49:21;;;;;;;0.40;0.40;;;6.90;99.90;10.20;102911.00;;;;5082481;28;20177;-78
2024/01/12 18:52:14;;;;;;;0.30;0.30;;;6.90;99.90;10.20;102910.00;;;;5076195;28;20529;-78
2024/01/12 18:55:08;;;;;;;0.40;0.40;;;7.00;99.90;10.10;102901.00;;;;5096654;28;20191;-77
2024/01/12 18:57:57;;;;;;;0.40;0.40;;;6.90;99.90;10.20;102921.00;;;;5050895;28;20189;-78
2024/01/12 19:00:58;;;;;;;0.30;0.30;;;6.90;99.90;10.10;102915.00;;;;5084809;28;20191;-77
2024/01/12 19:03:27;;;;;;;0.40;0.40;;;6.90;99.90;10.50;102904.00;;;;5094033;28;20643;-79
2024/01/12 19:06:17;;;;;;;0.40;0.40;;;7.00;99.90;10.30;102886.00;;;;5103602;28;20196;-79
2024/01/12 19:09:04;;;;;;;0.50;0.50;;;7.10;99.90;10.40;102902.00;;;;5096130;28;20193;-80
2024/01/12 19:11:48;;;;;;;0.50;0.50;;;7.10;99.90;10.50;102902.00;;;;5112729;28;20189;-77
2024/01/12 19:14:14;;;;;;;0.30;0.30;;;7.20;99.90;10.30;102898.00;;;;5109346;28;20182;-78
2024/01/12 19:16:41;;;;;;;0.40;0.40;;;7.20;99.90;9.80;102900.00;;;;5095249;28;20187;-75
2024/01/12 19:19:35;;;;;;;0.30;0.30;;;7.00;99.90;9.80;102906.00;;;;5100403;28;20236;-75
2024/01/12 19:22:37;;;;;;;0.40;0.40;;;6.90;99.90;10.30;102865.00;;;;5104045;28;20181;-75
2024/01/12 19:25:35;;;;;;;0.40;0.40;;;7.10;99.90;10.40;102868.00;;;;5103962;28;20219;-75
2024/01/12 19:28:26;;;;;;;0.40;0.40;;;7.10;99.90;10.20;102888.00;;;;5095234;28;20183;-82
2024/01/12 19:31:25;;;;;;;0.40;0.40;;;7.00;99.90;10.10;102904.00;;;;5035746;28;20252;-81
2024/01/12 19:33:59;;;;;;;0.47;0.47;;;7.00;99.90;10.30;102895.00;;;;5089398;28;20203;-81
2024/01/12 19:36:30;;;;;;;1.43;1.30;;;7.10;99.90;9.40;102857.00;;;;5100184;27;20177;-82
2024/01/12 19:38:56;;;;;;;0.33;0.33;;;6.90;99.90;9.60;102834.00;;;;5094563;28;20183;-82
2024/01/12 19:41:47;;;;;;;0.30;0.30;;;6.80;99.90;9.70;102875.00;;;;5099317;28;20273;-82
2024/01/12 19:45:00;;;;;;;0.70;0.70;;;6.70;99.90;10.00;102885.00;;;;5092839;28;20521;-79
2024/01/12 19:48:18;;;;;;;0.50;0.50;;;6.70;99.90;9.60;102880.00;;;;5121364;27;20191;-82
2024/01/12 19:51:47;;;;;;;1.17;1.17;;;6.50;99.90;8.60;102864.00;;;;5093032;28;20503;-83
2024/01/12 19:54:53;;;;;;;0.40;0.40;;;6.40;99.90;9.20;102839.00;;;;5111457;28;20529;-83
2024/01/12 19:57:59;;;;;;;0.30;0.30;;;6.30;99.90;9.80;102863.00;;;;5100154;28;20189;-80
2024/01/12 20:01:09;;;;;;;1.17;1.17;;;6.60;99.90;9.30;102851.00;;;;5088016;28;20659;-81
2024/01/12 20:04:17;;;;;;;0.30;0.30;;;6.50;99.90;10.00;102864.00;;;;5092670;28;20197;-80
2024/01/12 20:07:23;;;;;;;0.40;0.40;;;6.60;99.90;10.20;102827.00;;;;5093165;28;20627;-80